Time;durP1;ratioP1;P1;durP2;ratioP2;P2;SDS_P1;SDS_P2;PMS_P1;PMS_P2;Temp;Humidity;BMP_temperature;BMP_pressure;BME280_temperature;BME280_humidity;BME280_pressure;Samples;Min_cycle;Max_cycle;Signal;HPM_P1;HPM_P2
2022/03/09 00:00:54;;;;;;;2.72;2.05;;;17.00;33.70;16.00;101924.00;;;;5057348;28;20044;-65
2022/03/09 00:03:40;;;;;;;2.90;2.28;;;16.90;33.70;16.00;101929.00;;;;5047006;28;20037;-65
2022/03/09 00:06:27;;;;;;;2.15;1.65;;;16.90;33.80;15.90;101922.00;;;;5045787;28;20048;-65
2022/03/09 00:09:14;;;;;;;1.70;1.60;;;16.90;33.80;15.90;101929.00;;;;5042010;28;20237;-65
2022/03/09 00:12:02;;;;;;;2.33;1.77;;;16.90;33.80;15.90;101931.00;;;;5058986;28;20147;-65
2022/03/09 00:14:48;;;;;;;;;;;16.90;33.80;15.90;101932.00;;;;5057136;28;20062;-65
2022/03/09 00:17:34;;;;;;;2.33;1.88;;;16.90;33.90;15.90;101930.00;;;;5052824;28;19913;-65
2022/03/09 00:20:20;;;;;;;2.60;1.75;;;16.90;33.80;15.90;101930.00;;;;5060157;28;20082;-65
2022/03/09 00:23:06;;;;;;;2.50;1.85;;;16.90;33.80;15.90;101930.00;;;;5054294;28;20037;-65
2022/03/09 00:25:52;;;;;;;2.28;2.00;;;16.90;33.80;15.90;101932.00;;;;5039239;28;20063;-65
2022/03/09 00:28:38;;;;;;;2.50;2.08;;;16.90;33.80;15.90;101928.00;;;;5061068;28;20068;-65
2022/03/09 00:31:24;;;;;;;2.75;1.95;;;16.90;33.90;15.90;101938.00;;;;5056274;28;20040;-65
2022/03/09 00:34:10;;;;;;;2.33;1.98;;;16.90;33.90;15.90;101941.00;;;;5058740;28;20395;-65
2022/03/09 00:36:57;;;;;;;2.10;1.90;;;16.90;33.90;15.90;101941.00;;;;5037641;28;20033;-65
2022/03/09 00:39:43;;;;;;;2.45;2.10;;;16.90;33.90;15.90;101934.00;;;;5057346;28;20049;-65
2022/03/09 00:42:29;;;;;;;2.85;1.73;;;16.80;33.90;15.90;101931.00;;;;5054678;28;20033;-65
2022/03/09 00:45:15;;;;;;;3.00;2.00;;;16.80;33.90;15.90;101934.00;;;;5046777;28;20053;-65
2022/03/09 00:48:01;;;;;;;2.13;1.92;;;16.80;33.90;15.90;101931.00;;;;5062113;28;20369;-65
2022/03/09 00:50:47;;;;;;;2.38;1.90;;;16.80;33.90;15.90;101936.00;;;;5055630;28;20048;-65
2022/03/09 00:53:33;;;;;;;3.33;2.08;;;16.80;33.90;15.90;101929.00;;;;5040248;28;20045;-65
2022/03/09 00:56:19;;;;;;;2.55;1.70;;;16.80;33.90;15.90;101941.00;;;;5057431;28;20095;-65
2022/03/09 00:59:05;;;;;;;1.70;1.60;;;16.80;33.90;15.90;101935.00;;;;5043640;28;20056;-65
2022/03/09 01:01:51;;;;;;;2.88;1.98;;;16.80;33.90;15.90;101937.00;;;;5044662;28;20184;-65
2022/03/09 01:04:37;;;;;;;3.97;2.10;;;16.80;33.90;15.80;101940.00;;;;5043996;28;20041;-65
2022/03/09 01:07:23;;;;;;;2.72;2.08;;;16.80;33.90;15.90;101948.00;;;;5053537;28;20398;-65
2022/03/09 01:10:10;;;;;;;4.85;1.90;;;16.80;33.90;15.80;101950.00;;;;5053568;28;20044;-65
2022/03/09 01:12:56;;;;;;;2.60;2.00;;;16.80;33.90;15.80;101938.00;;;;5035709;28;20049;-65
2022/03/09 01:15:42;;;;;;;2.38;1.80;;;16.80;33.90;15.80;101935.00;;;;5054018;28;20040;-65
2022/03/09 01:18:28;;;;;;;2.53;2.05;;;16.80;33.90;15.80;101931.00;;;;5037286;28;20297;-65
2022/03/09 01:21:14;;;;;;;3.05;2.30;;;16.80;33.90;15.80;101927.00;;;;5053877;28;20457;-65
2022/03/09 01:24:00;;;;;;;2.13;1.92;;;16.80;33.90;15.80;101935.00;;;;5038255;28;20049;-65
2022/03/09 01:26:46;;;;;;;3.13;2.10;;;16.80;33.90;15.80;101932.00;;;;5043738;28;20078;-65
2022/03/09 01:29:32;;;;;;;2.75;1.92;;;16.80;33.90;15.80;101931.00;;;;5057715;28;20087;-65
2022/03/09 01:32:21;;;;;;;3.03;1.90;;;16.70;33.90;15.80;101929.00;;;;5053287;28;20106;-65
2022/03/09 01:35:08;;;;;;;6.38;2.20;;;16.70;33.90;15.80;101931.00;;;;5052587;28;20554;-65
2022/03/09 01:37:54;;;;;;;3.15;2.13;;;16.70;33.90;15.80;101939.00;;;;5046000;28;20041;-65
2022/03/09 01:40:40;;;;;;;2.80;2.30;;;16.70;33.90;15.80;101933.00;;;;5055538;28;20040;-65
2022/03/09 01:43:26;;;;;;;2.97;2.17;;;16.70;33.90;15.80;101933.00;;;;5057276;28;20041;-65
2022/03/09 01:46:12;;;;;;;2.67;1.88;;;16.70;34.00;15.80;101922.00;;;;5055248;28;20367;-65
2022/03/09 01:48:58;;;;;;;2.70;2.05;;;16.70;33.90;15.80;101929.00;;;;5057402;28;20041;-65
2022/03/09 01:51:50;;;;;;;4.25;2.42;;;16.70;34.60;15.80;101931.00;;;;5057526;28;20036;-65
2022/03/09 01:54:36;;;;;;;3.00;2.25;;;16.70;33.90;15.70;101929.00;;;;5044466;28;20039;-65
2022/03/09 01:57:23;;;;;;;4.40;2.13;;;16.60;33.90;15.70;101926.00;;;;5057907;28;20099;-65
2022/03/09 02:00:10;;;;;;;2.25;2.03;;;16.70;34.00;15.80;101926.00;;;;5041182;28;20049;-65
2022/03/09 02:02:56;;;;;;;3.40;2.30;;;16.70;34.00;15.70;101925.00;;;;5040625;28;20053;-65
2022/03/09 02:05:42;;;;;;;3.63;2.20;;;16.70;34.00;15.70;101933.00;;;;5052713;28;20036;-65
2022/03/09 02:11:34;;;;;;;2.72;2.20;;;16.70;34.00;15.70;101937.00;;;;5052041;28;20044;-65
2022/03/09 02:14:31;;;;;;;2.75;2.20;;;16.70;33.90;15.70;101922.00;;;;5040801;28;20040;-65
2022/03/09 02:17:25;;;;;;;2.83;2.00;;;16.60;33.80;15.70;101922.00;;;;5056523;28;20032;-65
2022/03/09 02:20:12;;;;;;;3.55;2.30;;;16.60;33.80;15.70;101932.00;;;;5038705;28;20045;-65
2022/03/09 02:22:58;;;;;;;3.22;2.20;;;16.70;33.90;15.70;101927.00;;;;5055344;28;20610;-65
2022/03/09 02:25:44;;;;;;;2.90;2.13;;;16.70;34.00;15.70;101925.00;;;;5050820;28;20044;-65
2022/03/09 02:28:30;;;;;;;3.25;2.50;;;16.60;33.90;15.70;101923.00;;;;5038917;28;20387;-65
2022/03/09 02:31:16;;;;;;;3.15;2.28;;;16.60;33.90;15.70;101922.00;;;;5050637;28;20049;-65
2022/03/09 02:34:02;;;;;;;2.58;2.28;;;16.60;34.00;15.70;101912.00;;;;5052133;28;20492;-65
2022/03/09 02:36:48;;;;;;;3.10;2.22;;;16.60;33.90;15.70;101915.00;;;;5052489;28;20032;-65
2022/03/09 02:39:35;;;;;;;3.35;2.45;;;16.60;33.90;15.70;101918.00;;;;5050878;28;20044;-65
2022/03/09 02:42:21;;;;;;;2.90;2.53;;;16.60;33.90;15.70;101916.00;;;;5055965;28;20052;-65
2022/03/09 02:45:07;;;;;;;3.90;2.22;;;16.60;33.90;15.70;101921.00;;;;5055736;28;20052;-65
2022/03/09 02:47:54;;;;;;;3.47;2.40;;;16.60;34.00;15.70;101926.00;;;;5024470;28;20036;-65
2022/03/09 02:50:40;;;;;;;2.90;2.50;;;16.60;33.90;15.70;101922.00;;;;5053394;28;20402;-65
2022/03/09 02:53:26;;;;;;;3.38;2.35;;;16.60;34.00;15.70;101920.00;;;;5051989;28;20051;-65
2022/03/09 02:56:12;;;;;;;3.03;2.58;;;16.60;34.00;15.70;101919.00;;;;5055072;28;20041;-65
2022/03/09 02:58:58;;;;;;;4.78;2.65;;;16.60;34.00;15.70;101918.00;;;;5054196;28;20037;-65
2022/03/09 03:01:44;;;;;;;3.60;2.80;;;16.60;34.00;15.60;101921.00;;;;5025078;28;20193;-65
2022/03/09 03:04:30;;;;;;;3.17;2.10;;;16.60;34.00;15.60;101922.00;;;;5056595;28;20043;-65
2022/03/09 03:07:16;;;;;;;2.83;2.15;;;16.60;34.00;15.60;101929.00;;;;5041424;28;20047;-65
2022/03/09 03:10:04;;;;;;;3.17;2.25;;;16.60;34.00;15.60;101916.00;;;;5049019;28;20049;-65
2022/03/09 03:12:50;;;;;;;2.50;2.17;;;16.50;33.90;15.60;101909.00;;;;5041378;28;20043;-65
2022/03/09 03:15:36;;;;;;;2.70;2.28;;;16.60;34.00;15.60;101912.00;;;;5051809;28;20045;-65
2022/03/09 03:18:22;;;;;;;2.90;2.50;;;16.60;34.00;15.60;101916.00;;;;5052177;28;20049;-65
2022/03/09 03:21:08;;;;;;;2.95;2.35;;;16.50;33.90;15.60;101914.00;;;;5038094;28;20055;-65
2022/03/09 03:23:54;;;;;;;3.40;2.22;;;16.50;33.90;15.60;101925.00;;;;5053147;28;20486;-65
2022/03/09 03:26:40;;;;;;;2.97;2.47;;;16.50;33.90;15.60;101933.00;;;;5052410;28;20037;-65
2022/03/09 03:29:26;;;;;;;2.72;2.40;;;16.50;33.90;15.60;101924.00;;;;5059019;28;20509;-65
2022/03/09 03:32:12;;;;;;;3.90;2.97;;;16.60;33.90;15.60;101931.00;;;;5051824;28;20094;-65
2022/03/09 03:34:58;;;;;;;2.95;2.60;;;16.50;33.90;15.60;101932.00;;;;5053431;28;20533;-65
2022/03/09 03:37:44;;;;;;;3.05;2.47;;;16.50;33.90;15.60;101932.00;;;;5056404;28;20037;-65
2022/03/09 03:40:30;;;;;;;3.00;2.60;;;16.50;33.90;15.60;101930.00;;;;5050679;28;20475;-65
2022/03/09 03:43:16;;;;;;;2.75;2.22;;;16.50;34.60;15.60;101926.00;;;;5043925;28;20402;-65
2022/03/09 03:46:02;;;;;;;3.78;2.83;;;16.50;33.90;15.60;101915.00;;;;5037302;28;20044;-65
2022/03/09 03:48:48;;;;;;;4.38;2.53;;;16.50;33.90;15.60;101927.00;;;;5053877;28;20482;-65
2022/03/09 03:51:34;;;;;;;3.08;2.50;;;16.50;33.90;15.60;101919.00;;;;5057072;28;20050;-65
2022/03/09 03:54:20;;;;;;;3.38;2.50;;;16.50;33.90;15.60;101922.00;;;;5056979;28;20474;-65
2022/03/09 03:57:07;;;;;;;4.60;2.72;;;16.50;33.90;15.60;101920.00;;;;5056393;28;20048;-65
2022/03/09 03:59:53;;;;;;;3.28;2.33;;;16.50;33.90;15.60;101916.00;;;;5035707;28;20056;-65
2022/03/09 04:02:39;;;;;;;2.92;2.55;;;16.50;33.90;15.60;101904.00;;;;5053537;28;20398;-65
2022/03/09 04:05:25;;;;;;;3.47;2.60;;;16.50;33.90;15.60;101910.00;;;;5050513;28;20041;-65
2022/03/09 04:08:11;;;;;;;3.75;2.35;;;16.40;33.90;15.50;101910.00;;;;5035975;28;20045;-65
2022/03/09 04:10:57;;;;;;;4.18;2.10;;;16.50;33.90;15.50;101914.00;;;;5050649;28;20045;-65
2022/03/09 04:13:44;;;;;;;3.10;2.40;;;16.40;33.90;15.50;101924.00;;;;5053253;28;20490;-65
2022/03/09 04:16:30;;;;;;;4.30;2.85;;;16.50;34.00;15.50;101923.00;;;;5055365;28;20525;-65
2022/03/09 04:19:16;;;;;;;2.65;2.40;;;16.50;33.90;15.50;101921.00;;;;5049814;28;20045;-65
2022/03/09 04:22:02;;;;;;;3.50;2.70;;;16.50;33.90;15.50;101920.00;;;;5056896;28;20048;-65
2022/03/09 04:24:48;;;;;;;3.20;2.42;;;16.40;33.90;15.50;101917.00;;;;5044080;28;20032;-65
2022/03/09 04:27:35;;;;;;;3.33;2.45;;;16.40;33.90;15.50;101922.00;;;;5056361;28;20638;-65
2022/03/09 04:30:21;;;;;;;2.67;2.42;;;16.40;33.90;15.50;101911.00;;;;5046457;28;20045;-65
2022/03/09 04:33:07;;;;;;;5.47;2.88;;;16.40;34.00;15.50;101927.00;;;;5046186;28;20045;-65
2022/03/09 04:35:53;;;;;;;3.20;2.40;;;16.40;34.00;15.50;101932.00;;;;5059351;28;20025;-65
2022/03/09 04:38:39;;;;;;;3.30;2.80;;;16.40;34.00;15.50;101933.00;;;;5056256;28;20048;-65
2022/03/09 04:41:25;;;;;;;3.45;2.70;;;16.40;34.00;15.50;101938.00;;;;5058869;28;20040;-65
2022/03/09 04:44:11;;;;;;;3.00;2.55;;;16.40;34.10;15.50;101931.00;;;;5062444;28;20099;-65
2022/03/09 04:46:57;;;;;;;2.92;2.33;;;16.40;34.10;15.50;101925.00;;;;5055169;28;20037;-65
2022/03/09 04:49:43;;;;;;;3.45;2.53;;;16.40;34.20;15.50;101932.00;;;;5054419;28;20090;-65
2022/03/09 04:52:29;;;;;;;3.78;2.80;;;16.40;34.10;15.40;101933.00;;;;5055280;28;20070;-65
2022/03/09 04:55:15;;;;;;;3.72;2.55;;;16.40;34.10;15.40;101924.00;;;;5057971;28;20211;-65
2022/03/09 04:58:01;;;;;;;3.03;2.70;;;16.30;34.10;15.40;101932.00;;;;5061403;28;20048;-65
2022/03/09 05:00:47;;;;;;;3.28;2.53;;;16.30;34.10;15.40;101931.00;;;;5044212;28;20482;-65
2022/03/09 05:03:34;;;;;;;2.65;2.42;;;16.30;34.20;15.40;101924.00;;;;5058424;28;20048;-65
2022/03/09 05:06:20;;;;;;;3.28;2.38;;;16.30;34.30;15.40;101928.00;;;;5056598;28;20392;-65
2022/03/09 05:09:06;;;;;;;3.35;2.75;;;16.30;34.30;15.40;101917.00;;;;5059221;28;20064;-65
2022/03/09 05:11:52;;;;;;;3.13;2.58;;;16.30;34.30;15.40;101919.00;;;;5053911;28;20110;-65
2022/03/09 05:14:38;;;;;;;5.43;2.85;;;16.30;34.30;15.40;101931.00;;;;5038773;28;20048;-65
2022/03/09 05:17:24;;;;;;;4.32;3.00;;;16.40;34.40;15.40;101940.00;;;;5061201;28;20660;-65
2022/03/09 05:20:11;;;;;;;3.50;2.65;;;16.30;34.30;15.40;101933.00;;;;5061383;28;20410;-65
2022/03/09 05:22:58;;;;;;;3.45;2.72;;;16.30;34.30;15.40;101940.00;;;;5041072;28;20045;-65
2022/03/09 05:25:44;;;;;;;3.78;2.40;;;16.30;34.20;15.30;101946.00;;;;5057066;28;20127;-65
2022/03/09 05:28:30;;;;;;;4.13;2.50;;;16.30;34.20;15.40;101943.00;;;;5054785;28;20048;-65
2022/03/09 05:31:16;;;;;;;3.75;2.95;;;16.30;34.20;15.30;101949.00;;;;5055628;28;20041;-65
2022/03/09 05:34:02;;;;;;;3.72;2.45;;;16.20;34.20;15.30;101950.00;;;;5050022;28;20040;-65
2022/03/09 05:36:48;;;;;;;2.90;2.40;;;16.20;34.90;15.30;101947.00;;;;5053803;28;20368;-65
2022/03/09 05:39:34;;;;;;;3.80;2.58;;;16.20;34.20;15.30;101959.00;;;;5052330;28;20122;-65
2022/03/09 05:42:20;;;;;;;5.10;2.65;;;16.20;34.20;15.30;101950.00;;;;5053469;28;20410;-65
2022/03/09 05:45:07;;;;;;;3.72;2.60;;;16.20;34.20;15.30;101955.00;;;;5061835;28;20062;-65
2022/03/09 05:47:53;;;;;;;4.22;2.85;;;16.20;34.20;15.30;101961.00;;;;5053291;28;20044;-65
2022/03/09 05:50:39;;;;;;;3.78;3.00;;;16.20;34.60;15.30;101974.00;;;;5051460;28;20510;-65
2022/03/09 05:53:25;;;;;;;4.55;3.08;;;16.20;34.20;15.30;101963.00;;;;5040476;28;20288;-65
2022/03/09 05:56:11;;;;;;;3.00;2.28;;;16.20;34.20;15.30;101966.00;;;;5055554;28;20047;-65
2022/03/09 05:58:57;;;;;;;4.30;2.70;;;16.20;34.20;15.30;101965.00;;;;5054765;28;20571;-65
2022/03/09 06:01:44;;;;;;;6.78;2.92;;;16.20;34.20;15.30;101962.00;;;;5054160;28;20047;-65
2022/03/09 06:04:30;;;;;;;3.33;2.45;;;16.20;34.30;15.30;101969.00;;;;5042081;28;20041;-65
2022/03/09 06:07:16;;;;;;;2.90;2.53;;;16.10;34.20;15.30;101973.00;;;;5039014;28;20053;-65
2022/03/09 06:10:02;;;;;;;3.47;2.47;;;16.20;34.30;15.30;101980.00;;;;5043158;28;20033;-65
2022/03/09 06:12:48;;;;;;;3.70;2.42;;;16.20;34.30;15.30;101973.00;;;;5057442;28;20029;-65
2022/03/09 06:15:34;;;;;;;3.85;2.45;;;16.20;34.30;15.30;101970.00;;;;5058748;28;20616;-65
2022/03/09 06:18:20;;;;;;;3.45;2.67;;;16.10;34.20;15.30;101976.00;;;;5061665;28;20094;-65
2022/03/09 06:21:06;;;;;;;3.72;2.55;;;16.10;34.20;15.30;101972.00;;;;5063052;28;20497;-65
2022/03/09 06:23:52;;;;;;;3.75;2.67;;;16.10;34.20;15.20;101967.00;;;;5058043;28;20039;-65
2022/03/09 06:26:38;;;;;;;2.70;2.08;;;16.20;34.30;15.20;101973.00;;;;5052104;28;20055;-65
2022/03/09 06:29:25;;;;;;;3.83;2.55;;;16.10;34.20;15.30;101977.00;;;;5044288;28;20044;-65
2022/03/09 06:32:11;;;;;;;3.75;2.58;;;16.10;34.20;15.20;101982.00;;;;5056943;28;20044;-65
2022/03/09 06:34:57;;;;;;;4.18;2.78;;;16.10;34.20;15.20;101985.00;;;;5058034;28;20037;-65
2022/03/09 06:37:43;;;;;;;4.05;2.60;;;16.10;34.20;15.20;101970.00;;;;5056944;28;20445;-65
2022/03/09 06:40:29;;;;;;;3.88;2.53;;;16.10;34.20;15.20;101986.00;;;;5040786;28;20040;-65
2022/03/09 06:43:15;;;;;;;2.80;2.20;;;16.20;34.20;15.20;101988.00;;;;5053736;28;20117;-65
2022/03/09 06:46:02;;;;;;;3.92;2.67;;;16.10;34.20;15.20;101998.00;;;;5037629;28;20454;-65
2022/03/09 06:48:48;;;;;;;5.05;2.70;;;16.10;34.20;15.20;101994.00;;;;5058258;28;20044;-65
2022/03/09 06:51:34;;;;;;;4.55;2.90;;;16.10;34.10;15.20;101996.00;;;;5053601;28;20410;-65
2022/03/09 06:54:20;;;;;;;3.33;2.58;;;16.10;34.10;15.20;101992.00;;;;5053945;28;20044;-65
2022/03/09 06:57:06;;;;;;;3.53;2.88;;;16.10;34.20;15.20;101988.00;;;;5054758;28;20684;-65
2022/03/09 06:59:52;;;;;;;3.33;2.65;;;16.10;34.10;15.20;101984.00;;;;5030057;28;20119;-65
2022/03/09 07:02:39;;;;;;;3.67;2.45;;;16.10;34.10;15.20;101989.00;;;;5057586;28;20322;-65
2022/03/09 07:05:25;;;;;;;3.67;2.60;;;16.10;34.10;15.20;101978.00;;;;5029066;28;20037;-65
2022/03/09 07:08:11;;;;;;;5.68;2.75;;;16.10;34.10;15.20;101981.00;;;;5039087;28;20037;-65
2022/03/09 07:10:58;;;;;;;3.78;2.30;;;16.10;34.00;15.20;101974.00;;;;5037349;28;20033;-65
2022/03/09 07:13:44;;;;;;;2.70;2.35;;;16.10;34.00;15.20;101972.00;;;;5051831;28;20180;-65
2022/03/09 07:16:30;;;;;;;4.15;2.60;;;16.10;34.00;15.30;101985.00;;;;5040486;28;20099;-65
2022/03/09 07:19:16;;;;;;;2.85;2.53;;;16.10;34.00;15.30;101987.00;;;;5054578;28;20049;-65
2022/03/09 07:22:03;;;;;;;3.47;2.42;;;16.10;34.00;15.20;101985.00;;;;5049248;28;20051;-65
2022/03/09 07:24:49;;;;;;;6.50;2.42;;;16.20;34.10;15.30;102002.00;;;;5038859;28;20043;-65
2022/03/09 07:27:35;;;;;;;4.07;2.72;;;16.10;34.00;15.30;102002.00;;;;5036304;28;20063;-65
2022/03/09 07:30:21;;;;;;;5.00;3.03;;;16.20;34.10;15.30;102007.00;;;;5051518;28;20243;-65
2022/03/09 07:33:07;;;;;;;3.85;2.42;;;16.20;34.10;15.30;102006.00;;;;5052761;28;20368;-65
2022/03/09 07:35:54;;;;;;;3.88;2.42;;;16.20;34.10;15.30;102006.00;;;;5049622;28;20036;-65
2022/03/09 07:38:40;;;;;;;3.42;2.63;;;16.20;34.10;15.30;102012.00;;;;5031121;28;20041;-65
2022/03/09 07:41:26;;;;;;;4.05;2.58;;;16.20;34.10;15.30;102021.00;;;;5053231;28;20041;-65
2022/03/09 07:44:13;;;;;;;3.90;2.70;;;16.20;34.10;15.30;102020.00;;;;5052682;28;20436;-65
2022/03/09 07:46:59;;;;;;;3.22;2.47;;;16.20;34.10;15.30;102026.00;;;;5052863;28;20044;-65
2022/03/09 07:49:45;;;;;;;6.53;2.95;;;16.20;34.20;15.30;102011.00;;;;5038629;28;20044;-65
2022/03/09 07:52:31;;;;;;;5.43;2.78;;;16.20;34.10;15.30;102012.00;;;;5053055;28;20478;-65
2022/03/09 07:55:18;;;;;;;3.80;2.50;;;16.20;34.20;15.30;102013.00;;;;5055635;28;20052;-65
2022/03/09 07:58:04;;;;;;;3.63;2.40;;;16.20;34.20;15.30;102016.00;;;;5056893;28;20643;-65
2022/03/09 08:00:50;;;;;;;4.57;2.75;;;16.20;34.20;15.30;102022.00;;;;5053493;28;20051;-65
2022/03/09 08:03:38;;;;;;;4.68;2.63;;;16.20;34.20;15.30;102011.00;;;;5041355;28;20106;-65
2022/03/09 08:06:24;;;;;;;5.95;2.70;;;16.30;34.20;15.30;102013.00;;;;5056476;28;20127;-65
2022/03/09 08:09:10;;;;;;;2.83;2.22;;;16.30;34.20;15.30;102023.00;;;;5058288;28;20045;-65
2022/03/09 08:11:56;;;;;;;3.17;2.55;;;16.30;34.20;15.30;102016.00;;;;5043546;28;20044;-65
2022/03/09 08:14:42;;;;;;;3.72;2.53;;;16.30;34.20;15.30;102026.00;;;;5051219;28;20047;-65
2022/03/09 08:17:29;;;;;;;3.83;2.60;;;16.30;34.20;15.30;102023.00;;;;5055571;28;20100;-65
2022/03/09 08:20:15;;;;;;;3.33;2.55;;;16.30;34.20;15.30;102029.00;;;;5063064;28;20052;-65
2022/03/09 08:23:01;;;;;;;4.20;2.47;;;16.30;34.20;15.40;102024.00;;;;5043944;28;20044;-65
2022/03/09 08:25:47;;;;;;;3.30;2.35;;;16.40;34.30;15.40;102029.00;;;;5057442;28;20044;-65
2022/03/09 08:28:33;;;;;;;4.28;3.05;;;16.40;34.20;15.40;102025.00;;;;5058807;28;20561;-65
2022/03/09 08:31:20;;;;;;;3.45;2.40;;;16.40;34.30;15.40;102015.00;;;;5042560;28;20060;-65
2022/03/09 08:34:07;;;;;;;3.75;2.78;;;16.30;34.20;15.40;102016.00;;;;5058499;28;20047;-65
2022/03/09 08:36:53;;;;;;;3.05;2.28;;;16.30;34.20;15.40;102021.00;;;;5054088;28;20056;-65
2022/03/09 08:39:39;;;;;;;3.45;2.75;;;16.40;34.10;15.40;102020.00;;;;5055095;28;20553;-64
2022/03/09 08:42:25;;;;;;;5.22;2.65;;;16.40;34.10;15.40;102029.00;;;;5054720;28;20393;-65
2022/03/09 08:45:11;;;;;;;12.30;3.00;;;16.40;34.10;15.30;102030.00;;;;5055652;28;20052;-65
2022/03/09 08:47:57;;;;;;;6.35;2.90;;;16.40;34.00;15.30;102024.00;;;;5050418;28;20053;-65
2022/03/09 08:50:43;;;;;;;9.07;2.60;;;16.40;33.90;15.30;102023.00;;;;5040379;28;20033;-65
2022/03/09 08:53:31;;;;;;;8.20;3.40;;;16.40;34.00;15.20;102022.00;;;;5054351;28;20536;-65
2022/03/09 08:56:17;;;;;;;6.05;2.97;;;16.30;33.90;15.20;102026.00;;;;5056115;28;20122;-65
2022/03/09 08:59:03;;;;;;;5.25;2.88;;;16.40;33.90;15.20;102019.00;;;;5056174;28;20040;-65
2022/03/09 09:01:49;;;;;;;6.30;3.03;;;16.30;33.80;15.10;102014.00;;;;5041595;28;20087;-65
2022/03/09 09:04:35;;;;;;;5.53;3.50;;;16.30;33.60;15.10;102020.00;;;;5054446;28;20382;-65
2022/03/09 09:07:22;;;;;;;5.35;3.28;;;16.20;33.60;15.10;102011.00;;;;5051498;28;20084;-65
2022/03/09 09:10:08;;;;;;;4.40;3.05;;;16.20;33.60;15.20;102005.00;;;;5055474;28;20106;-65
2022/03/09 09:12:57;;;;;;;5.65;2.65;;;16.20;33.70;15.20;102017.00;;;;5051100;28;20782;-66
2022/03/09 09:15:43;;;;;;;6.97;3.00;;;16.20;33.90;15.20;102023.00;;;;5058102;28;20461;-65
2022/03/09 09:18:29;;;;;;;4.78;2.80;;;16.20;33.80;15.20;102014.00;;;;5031252;28;20044;-65
2022/03/09 09:21:16;;;;;;;5.80;3.00;;;16.20;33.70;15.20;102023.00;;;;5054939;28;20040;-65
2022/03/09 09:24:02;;;;;;;8.77;3.83;;;16.20;33.70;15.20;102011.00;;;;5050325;28;20033;-65
2022/03/09 09:26:48;;;;;;;8.77;3.38;;;16.20;33.80;15.20;102014.00;;;;5054396;28;20040;-65
2022/03/09 09:29:34;;;;;;;6.38;3.40;;;16.30;32.20;15.10;102008.00;;;;5052328;28;20111;-65
2022/03/09 09:32:20;;;;;;;4.15;2.83;;;16.20;32.30;15.00;102022.00;;;;5052456;28;20380;-65
2022/03/09 09:35:06;;;;;;;4.18;3.10;;;16.20;32.90;15.00;102019.00;;;;5037526;28;20041;-66
2022/03/09 09:37:52;;;;;;;8.32;3.38;;;16.10;32.60;14.90;102030.00;;;;5050142;28;20478;-65
2022/03/09 09:40:41;;;;;;;4.70;3.22;;;16.00;32.10;14.80;102023.00;;;;5055759;28;20045;-65
2022/03/09 09:43:27;;;;;;;8.18;3.42;;;16.00;31.60;14.80;102012.00;;;;5037450;28;20041;-65
2022/03/09 09:46:15;;;;;;;5.45;3.20;;;15.90;32.00;14.80;102011.00;;;;5051048;28;20049;-65
2022/03/09 09:49:01;;;;;;;4.00;3.00;;;15.90;32.90;14.80;102011.00;;;;5042531;28;20044;-65
2022/03/09 09:51:47;;;;;;;4.30;2.53;;;15.80;32.90;14.80;101997.00;;;;5053522;28;20041;-65
2022/03/09 09:54:33;;;;;;;6.00;2.90;;;15.80;33.10;14.90;102013.00;;;;5025708;28;20441;-65
2022/03/09 09:57:19;;;;;;;4.53;3.08;;;15.80;33.20;14.90;102011.00;;;;5035221;28;20040;-66
2022/03/09 10:00:06;;;;;;;7.28;3.25;;;15.80;33.30;15.00;102009.00;;;;5044490;28;20086;-65
2022/03/09 10:02:52;;;;;;;5.05;2.40;;;15.90;33.40;15.00;102006.00;;;;5043172;28;20043;-65
2022/03/09 10:05:38;;;;;;;3.35;2.40;;;15.90;33.40;15.00;102004.00;;;;5042681;28;20079;-65
2022/03/09 10:08:25;;;;;;;3.83;2.30;;;15.90;33.40;15.10;102005.00;;;;5050214;28;20516;-65
2022/03/09 10:11:11;;;;;;;4.78;2.88;;;16.00;33.40;15.10;102001.00;;;;5051720;28;20041;-65
2022/03/09 10:13:57;;;;;;;3.75;2.70;;;16.00;33.40;15.10;101992.00;;;;5052469;28;20517;-65
2022/03/09 10:17:07;;;;;;;3.60;2.63;;;16.00;33.40;15.20;102003.00;;;;5037340;28;20036;-65
2022/03/09 10:19:58;;;;;;;5.82;2.83;;;16.10;33.20;15.20;102002.00;;;;5040631;28;20532;-65
2022/03/09 10:22:46;;;;;;;5.28;2.72;;;16.10;33.40;15.20;102005.00;;;;5044691;28;20045;-65
2022/03/09 10:25:32;;;;;;;4.60;2.22;;;16.20;33.50;15.20;102002.00;;;;5058219;28;20059;-65
2022/03/09 10:28:18;;;;;;;4.28;2.47;;;16.20;33.40;15.30;102000.00;;;;5041841;28;20597;-65
2022/03/09 10:31:07;;;;;;;2.90;2.20;;;16.20;33.40;15.30;101998.00;;;;5051231;28;20041;-65
2022/03/09 10:34:24;;;;;;;3.55;2.38;;;16.30;33.40;15.30;102000.00;;;;5030137;28;20082;-65
2022/03/09 10:37:10;;;;;;;3.58;2.30;;;16.30;33.30;15.30;102002.00;;;;5026995;28;20151;-65
2022/03/09 10:39:56;;;;;;;3.08;2.20;;;16.30;33.30;15.30;102007.00;;;;5036875;28;20053;-65
2022/03/09 10:42:42;;;;;;;3.42;2.50;;;16.30;33.30;15.30;102005.00;;;;5032225;28;20506;-65
2022/03/09 10:45:28;;;;;;;5.25;2.50;;;16.40;33.40;15.40;102001.00;;;;5042667;28;20045;-65
2022/03/09 10:48:14;;;;;;;6.03;2.30;;;16.40;33.30;15.40;101996.00;;;;5037218;28;20044;-65
2022/03/09 10:51:00;;;;;;;4.00;2.70;;;16.40;33.40;15.40;101998.00;;;;5053681;28;20044;-65
2022/03/09 10:53:46;;;;;;;3.92;2.63;;;16.40;33.30;15.40;101998.00;;;;5055096;28;20028;-65
2022/03/09 10:56:33;;;;;;;3.67;2.25;;;16.50;33.30;15.40;102002.00;;;;5055975;28;20037;-65
2022/03/09 10:59:24;;;;;;;3.38;2.35;;;16.40;33.30;15.40;101997.00;;;;5059320;28;20156;-65
2022/03/09 11:02:10;;;;;;;2.15;1.95;;;16.50;33.30;15.50;101990.00;;;;5050552;28;20060;-65
2022/03/09 11:05:12;;;;;;;3.60;2.45;;;16.50;33.30;15.50;101997.00;;;;5044241;28;20368;-65
2022/03/09 11:07:58;;;;;;;3.53;2.40;;;16.50;33.30;15.50;101989.00;;;;5056834;28;20044;-65
2022/03/09 11:10:45;;;;;;;5.10;2.30;;;16.50;33.30;15.50;101990.00;;;;5030134;28;20402;-65
2022/03/09 11:13:37;;;;;;;4.35;2.30;;;16.60;33.40;15.50;101989.00;;;;5039820;28;20040;-65
2022/03/09 11:16:23;;;;;;;3.10;2.33;;;16.60;33.30;15.50;101993.00;;;;5047014;28;20048;-65
2022/03/09 11:19:12;;;;;;;3.25;2.30;;;16.60;33.30;15.50;101981.00;;;;5041215;28;20095;-66
2022/03/09 11:21:58;;;;;;;3.45;2.35;;;16.60;33.30;15.50;101997.00;;;;5052265;28;20511;-65
2022/03/09 11:24:44;;;;;;;3.72;2.40;;;16.60;33.30;15.50;101994.00;;;;5044354;28;20068;-65
2022/03/09 11:27:31;;;;;;;3.45;2.35;;;16.60;33.30;15.60;101991.00;;;;5039765;28;20552;-65
2022/03/09 11:30:28;;;;;;;3.97;2.72;;;16.60;33.10;15.60;101983.00;;;;5037283;28;20055;-65
2022/03/09 11:33:42;;;;;;;3.08;2.20;;;16.60;33.30;15.60;101977.00;;;;5049802;28;20486;-65
2022/03/09 11:36:29;;;;;;;3.17;2.20;;;16.70;33.30;15.60;101979.00;;;;5062937;28;20044;-65
2022/03/09 11:39:17;;;;;;;2.47;2.10;;;16.70;33.40;15.60;101984.00;;;;5060865;28;20051;-65
2022/03/09 11:42:21;;;;;;;3.30;2.25;;;16.70;33.40;15.60;101970.00;;;;5061314;28;20041;-65
2022/03/09 11:45:29;;;;;;;3.90;2.85;;;16.70;33.40;15.60;101972.00;;;;5053157;28;20045;-65
2022/03/09 11:48:17;;;;;;;3.05;2.42;;;16.70;33.30;15.60;101979.00;;;;5060001;28;20432;-65
2022/03/09 11:51:03;;;;;;;2.40;2.17;;;16.70;33.40;15.60;101968.00;;;;5047073;28;20410;-65
2022/03/09 11:53:59;;;;;;;3.63;2.47;;;16.70;33.30;15.60;101968.00;;;;5064022;28;20041;-65
2022/03/09 11:56:52;;;;;;;3.65;2.53;;;16.70;33.40;15.60;101965.00;;;;5049378;28;20040;-65
2022/03/09 11:59:38;;;;;;;5.20;2.63;;;16.70;33.50;15.70;101964.00;;;;5057882;28;20152;-65
2022/03/09 12:02:24;;;;;;;3.15;2.20;;;16.80;33.40;15.70;101956.00;;;;5062804;28;20132;-65
2022/03/09 12:05:25;;;;;;;3.38;2.25;;;16.80;33.40;15.70;101953.00;;;;5035478;28;20559;-65
2022/03/09 12:08:14;;;;;;;4.93;2.22;;;16.80;33.40;15.70;101964.00;;;;5057899;28;20040;-65
2022/03/09 12:11:00;;;;;;;3.13;2.42;;;16.80;33.70;15.70;101952.00;;;;5046286;28;20040;-65
2022/03/09 12:13:46;;;;;;;3.58;2.20;;;16.80;33.40;15.70;101950.00;;;;5060562;28;20097;-65
2022/03/09 12:16:32;;;;;;;2.60;2.15;;;16.80;33.40;15.70;101950.00;;;;5055914;28;20061;-65